Time;durP1;ratioP1;P1;durP2;ratioP2;P2;SDS_P1;SDS_P2;PMS_P1;PMS_P2;Temp;Humidity;BMP_temperature;BMP_pressure;BME280_temperature;BME280_humidity;BME280_pressure;Samples;Min_cycle;Max_cycle;Signal;HPM_P1;HPM_P2
2024/03/26 00:00:13;;;;;;;5.07;2.70;;;8.10;99.90;;;;;;5036721;28;20960;-62
2024/03/26 00:02:38;;;;;;;5.67;3.10;;;8.10;99.90;;;;;;5036386;28;20182;-62
2024/03/26 00:05:06;;;;;;;7.30;3.43;;;8.10;99.90;;;;;;5037753;28;20443;-63
2024/03/26 00:07:32;;;;;;;4.10;2.50;;;8.00;99.90;;;;;;5068188;28;20202;-62
2024/03/26 00:09:58;;;;;;;7.43;3.00;;;8.00;99.90;;;;;;5037174;28;20428;-62
2024/03/26 00:12:24;;;;;;;4.47;3.17;;;8.00;99.90;;;;;;5038112;28;20494;-62
2024/03/26 00:14:49;;;;;;;3.97;3.00;;;7.90;99.90;;;;;;5037603;28;20327;-62
2024/03/26 00:17:16;;;;;;;5.83;3.10;;;7.90;99.90;;;;;;5037966;28;20183;-62
2024/03/26 00:19:42;;;;;;;5.40;3.60;;;7.90;99.90;;;;;;5037713;28;20725;-62
2024/03/26 00:22:08;;;;;;;3.73;2.97;;;7.90;99.90;;;;;;5036560;28;20424;-62
2024/03/26 00:24:33;;;;;;;6.70;3.40;;;7.90;99.90;;;;;;5038012;28;20474;-62
2024/03/26 00:26:59;;;;;;;4.10;3.10;;;7.90;99.90;;;;;;5037494;28;20420;-62
2024/03/26 00:29:25;;;;;;;6.60;2.90;;;7.80;99.90;;;;;;5036080;28;20730;-62
2024/03/26 00:31:50;;;;;;;4.90;3.13;;;7.80;99.90;;;;;;5037687;28;20233;-62
2024/03/26 00:34:16;;;;;;;3.97;2.67;;;7.80;99.90;;;;;;5036947;28;20201;-62
2024/03/26 00:36:42;;;;;;;6.70;3.00;;;7.70;99.90;;;;;;5037543;28;20247;-62
2024/03/26 00:39:10;;;;;;;7.30;3.40;;;7.70;99.90;;;;;;5036466;28;20189;-62
2024/03/26 00:41:36;;;;;;;5.30;2.60;;;7.70;99.90;;;;;;5037343;28;20731;-62
2024/03/26 00:44:02;;;;;;;4.17;2.73;;;7.70;99.90;;;;;;5037519;28;20425;-62
2024/03/26 00:46:27;;;;;;;6.67;3.20;;;7.80;99.90;;;;;;5037397;28;20187;-62
2024/03/26 00:48:53;;;;;;;3.73;3.03;;;7.80;99.90;;;;;;5037200;28;20248;-62
2024/03/26 00:51:19;;;;;;;4.83;3.07;;;7.80;99.90;;;;;;5036514;28;20214;-62
2024/03/26 00:53:44;;;;;;;7.03;3.00;;;7.80;99.90;;;;;;5037119;28;20190;-62
2024/03/26 00:56:10;;;;;;;3.17;2.63;;;7.80;99.90;;;;;;5037457;28;20197;-62
2024/03/26 00:58:36;;;;;;;4.23;2.87;;;7.80;99.90;;;;;;5036944;28;20365;-62
2024/03/26 01:01:09;;;;;;;3.40;2.63;;;7.80;99.90;;;;;;5037065;28;20178;-62
2024/03/26 01:03:35;;;;;;;3.70;2.60;;;7.90;99.90;;;;;;5036994;28;20190;-62
2024/03/26 01:06:01;;;;;;;3.87;2.57;;;7.90;99.90;;;;;;5036226;28;20435;-62
2024/03/26 01:08:27;;;;;;;4.97;3.00;;;7.90;99.90;;;;;;5037042;28;20565;-62
2024/03/26 01:10:52;;;;;;;4.93;3.53;;;7.90;99.90;;;;;;5036691;28;20464;-62
2024/03/26 01:13:18;;;;;;;9.20;3.40;;;8.00;99.90;;;;;;5036546;28;20174;-62
2024/03/26 01:15:45;;;;;;;5.63;2.83;;;8.00;99.90;;;;;;5036779;28;20421;-62
2024/03/26 01:18:10;;;;;;;4.20;2.80;;;8.00;99.90;;;;;;5037119;28;20997;-62
2024/03/26 01:20:37;;;;;;;5.03;3.07;;;8.00;99.90;;;;;;5036350;28;20433;-61
2024/03/26 01:23:03;;;;;;;3.70;3.07;;;8.00;99.90;;;;;;5037216;28;20170;-62
2024/03/26 01:25:29;;;;;;;4.80;2.70;;;8.00;99.90;;;;;;5036217;28;20436;-62
2024/03/26 01:27:56;;;;;;;3.90;2.10;;;8.00;99.90;;;;;;5036019;28;20434;-62
2024/03/26 01:30:23;;;;;;;3.90;2.37;;;8.00;99.90;;;;;;5037030;28;20613;-62
2024/03/26 01:32:49;;;;;;;3.37;3.07;;;8.00;99.90;;;;;;5036288;28;20476;-62
2024/03/26 01:35:14;;;;;;;4.40;2.93;;;8.00;99.90;;;;;;5036506;28;20449;-62
2024/03/26 01:37:40;;;;;;;4.90;2.87;;;8.00;99.90;;;;;;5036502;28;20518;-62
2024/03/26 01:40:09;;;;;;;5.13;3.03;;;8.00;99.90;;;;;;5036485;28;20235;-62
2024/03/26 01:42:35;;;;;;;5.70;2.70;;;8.00;99.90;;;;;;5035012;28;20269;-62
2024/03/26 01:45:02;;;;;;;3.77;2.73;;;8.00;99.90;;;;;;5036035;28;20424;-62
2024/03/26 01:47:28;;;;;;;5.30;2.53;;;8.00;99.90;;;;;;5034688;28;20436;-62
2024/03/26 01:49:56;;;;;;;4.40;2.77;;;8.00;99.90;;;;;;5035334;28;20922;-62
2024/03/26 01:52:25;;;;;;;3.83;3.20;;;8.00;99.90;;;;;;5035602;28;21054;-62
2024/03/26 01:54:51;;;;;;;5.00;2.53;;;8.00;99.90;;;;;;5036454;28;20544;-63
2024/03/26 01:57:17;;;;;;;3.60;2.53;;;8.00;99.90;;;;;;5036200;28;20497;-62
2024/03/26 01:59:42;;;;;;;5.03;2.60;;;7.90;99.90;;;;;;5035133;28;20421;-62
2024/03/26 02:02:08;;;;;;;4.80;2.60;;;7.90;99.90;;;;;;5036459;28;20224;-62
2024/03/26 02:04:34;;;;;;;5.17;2.77;;;8.00;99.90;;;;;;5036039;28;20780;-62
2024/03/26 02:07:00;;;;;;;3.30;2.63;;;8.00;99.90;;;;;;5036578;28;20436;-62
2024/03/26 02:09:26;;;;;;;6.10;2.40;;;8.00;99.90;;;;;;5035569;28;20190;-62
2024/03/26 02:11:51;;;;;;;3.50;2.20;;;8.00;99.90;;;;;;5036347;28;20235;-62
2024/03/26 02:14:18;;;;;;;3.73;2.20;;;8.00;99.90;;;;;;5034898;28;20908;-62
2024/03/26 02:16:44;;;;;;;3.90;2.17;;;8.00;99.90;;;;;;5036167;28;20182;-62
2024/03/26 02:19:10;;;;;;;4.73;3.13;;;8.00;99.90;;;;;;5036079;28;20432;-62
2024/03/26 02:21:36;;;;;;;7.77;3.23;;;8.00;99.90;;;;;;5035798;28;20441;-62
2024/03/26 02:24:02;;;;;;;3.03;2.30;;;8.00;99.90;;;;;;5040927;28;20803;-62
2024/03/26 02:26:27;;;;;;;4.00;2.77;;;8.00;99.90;;;;;;5035795;28;20190;-62
2024/03/26 02:28:56;;;;;;;3.87;2.90;;;8.00;99.90;;;;;;5034574;28;20186;-62
2024/03/26 02:31:22;;;;;;;2.63;2.13;;;8.00;99.90;;;;;;5035953;28;20213;-62
2024/03/26 02:33:47;;;;;;;2.80;1.80;;;8.00;99.90;;;;;;5035192;28;20923;-62
2024/03/26 02:36:13;;;;;;;3.17;2.03;;;8.00;99.90;;;;;;5036460;28;20174;-62
2024/03/26 02:38:39;;;;;;;3.40;2.13;;;8.00;99.90;;;;;;5034813;28;20297;-62
2024/03/26 02:41:05;;;;;;;3.53;2.40;;;8.00;99.90;;;;;;5036717;28;20946;-62
2024/03/26 02:43:32;;;;;;;4.73;2.50;;;8.00;99.90;;;;;;5035541;28;20184;-62
2024/03/26 02:45:57;;;;;;;3.27;2.37;;;8.00;99.90;;;;;;5036638;28;20323;-62
2024/03/26 02:48:23;;;;;;;3.17;2.70;;;8.10;99.90;;;;;;5035054;28;20516;-62
2024/03/26 02:50:52;;;;;;;4.10;2.30;;;8.10;99.90;;;;;;5035060;28;21003;-62
2024/03/26 02:53:23;;;;;;;2.57;2.37;;;8.10;99.90;;;;;;5035240;28;20272;-62
2024/03/26 02:55:49;;;;;;;4.20;2.20;;;8.10;99.90;;;;;;5034730;28;20435;-62
2024/03/26 02:58:15;;;;;;;2.43;1.80;;;8.10;99.90;;;;;;5034448;28;20456;-62
2024/03/26 03:00:40;;;;;;;2.30;2.10;;;8.00;99.90;;;;;;5034296;28;20461;-62
2024/03/26 03:03:06;;;;;;;3.30;2.10;;;8.10;99.90;;;;;;5035296;28;20717;-62
2024/03/26 03:05:32;;;;;;;3.83;2.60;;;8.00;99.90;;;;;;5034338;28;20209;-62
2024/03/26 03:07:57;;;;;;;3.47;2.60;;;8.00;99.90;;;;;;5034424;28;20451;-62
2024/03/26 03:10:23;;;;;;;2.77;2.57;;;8.00;99.90;;;;;;5035123;28;20190;-62
2024/03/26 03:12:49;;;;;;;5.60;2.53;;;8.00;99.90;;;;;;5034702;28;20232;-62
2024/03/26 03:15:15;;;;;;;3.70;2.80;;;8.00;99.90;;;;;;5034762;28;20264;-63
2024/03/26 03:17:40;;;;;;;4.17;3.00;;;8.00;99.90;;;;;;5033406;28;20186;-62
2024/03/26 03:20:11;;;;;;;3.07;2.77;;;8.00;99.90;;;;;;5035306;28;20323;-62
2024/03/26 03:22:41;;;;;;;3.73;2.50;;;8.00;99.90;;;;;;5034062;28;20200;-62
2024/03/26 03:25:07;;;;;;;4.37;2.13;;;8.00;99.90;;;;;;5037014;28;20598;-62
2024/03/26 03:27:33;;;;;;;2.50;2.23;;;8.00;99.90;;;;;;5068435;28;20455;-62
2024/03/26 03:29:59;;;;;;;3.70;2.67;;;8.00;99.90;;;;;;5038513;28;20421;-62
2024/03/26 03:32:25;;;;;;;4.87;2.33;;;8.00;99.90;;;;;;5038173;28;20556;-63
2024/03/26 03:34:52;;;;;;;5.43;2.97;;;8.10;99.90;;;;;;5039110;28;20519;-62
2024/03/26 03:37:18;;;;;;;2.97;2.27;;;8.10;99.90;;;;;;5038434;28;20420;-62
2024/03/26 03:39:43;;;;;;;4.50;2.47;;;8.10;99.90;;;;;;5037326;28;20999;-63
2024/03/26 03:42:09;;;;;;;4.47;2.47;;;8.10;99.90;;;;;;5038569;28;20220;-63
2024/03/26 03:44:37;;;;;;;3.73;2.43;;;8.10;99.90;;;;;;5037042;28;20182;-62
2024/03/26 03:47:04;;;;;;;4.30;2.47;;;8.10;99.90;;;;;;5038192;28;20209;-62
2024/03/26 03:49:30;;;;;;;4.10;2.23;;;8.10;99.90;;;;;;5038588;28;20514;-62
2024/03/26 03:52:03;;;;;;;2.43;2.20;;;8.20;99.90;;;;;;5036849;28;21009;-63
2024/03/26 03:54:29;;;;;;;3.00;2.10;;;8.10;99.90;;;;;;5038241;28;20435;-62
2024/03/26 03:56:55;;;;;;;3.13;2.33;;;8.10;99.90;;;;;;5037679;28;20444;-63
2024/03/26 03:59:21;;;;;;;4.67;2.37;;;8.10;99.90;;;;;;5038191;28;21090;-62
2024/03/26 04:01:47;;;;;;;4.00;2.43;;;8.10;99.90;;;;;;5037425;28;20205;-62
2024/03/26 04:04:13;;;;;;;3.37;2.70;;;8.10;99.90;;;;;;5037574;28;20429;-62
2024/03/26 04:06:39;;;;;;;3.60;2.67;;;8.10;99.90;;;;;;5036538;28;20809;-62
2024/03/26 04:09:04;;;;;;;2.93;2.53;;;8.00;99.90;;;;;;5038694;28;20432;-62
2024/03/26 04:11:30;;;;;;;4.63;2.50;;;8.00;99.90;;;;;;5036216;28;20711;-62
2024/03/26 04:13:56;;;;;;;3.23;2.67;;;8.00;99.90;;;;;;5037485;28;20307;-62
2024/03/26 04:16:23;;;;;;;5.23;2.73;;;8.00;99.90;;;;;;5069547;28;21082;-62
2024/03/26 04:18:49;;;;;;;3.83;2.50;;;8.00;99.90;;;;;;5037083;28;20511;-62
2024/03/26 04:21:15;;;;;;;4.57;2.80;;;7.90;99.90;;;;;;5036614;28;20420;-62
2024/03/26 04:23:41;;;;;;;4.20;2.70;;;7.80;99.90;;;;;;5036710;28;20429;-62
2024/03/26 04:26:06;;;;;;;4.93;2.90;;;7.80;99.90;;;;;;5037889;28;20201;-62
2024/03/26 04:28:32;;;;;;;3.20;2.67;;;7.80;99.90;;;;;;5036334;28;20202;-63
2024/03/26 04:30:58;;;;;;;5.50;2.53;;;7.80;99.90;;;;;;5037369;28;20241;-62
2024/03/26 04:33:24;;;;;;;4.90;3.17;;;7.70;99.90;;;;;;5037010;28;20174;-63
2024/03/26 04:35:49;;;;;;;3.40;2.43;;;7.70;99.90;;;;;;5036486;28;20612;-62
2024/03/26 04:38:15;;;;;;;4.83;2.90;;;7.70;99.90;;;;;;5035894;28;20435;-62
2024/03/26 04:40:41;;;;;;;3.40;2.60;;;7.70;99.90;;;;;;5036056;28;20269;-62
2024/03/26 04:43:08;;;;;;;2.90;2.40;;;7.70;99.90;;;;;;5037334;28;20188;-62
2024/03/26 04:45:34;;;;;;;2.80;2.33;;;7.70;99.90;;;;;;5034752;28;20440;-62
2024/03/26 04:47:59;;;;;;;3.63;2.70;;;7.60;99.90;;;;;;5035740;28;20420;-62
2024/03/26 04:50:26;;;;;;;3.60;2.40;;;7.60;99.90;;;;;;5035049;28;20843;-62
2024/03/26 04:52:51;;;;;;;4.13;2.73;;;7.50;99.90;;;;;;5035056;28;20222;-62
2024/03/26 04:55:17;;;;;;;3.87;2.73;;;7.50;99.90;;;;;;5035456;28;20452;-62
2024/03/26 04:57:44;;;;;;;3.50;2.90;;;7.50;99.90;;;;;;5034099;28;20995;-62
2024/03/26 05:00:12;;;;;;;3.70;3.07;;;7.50;99.90;;;;;;5035277;28;20268;-63
2024/03/26 05:02:39;;;;;;;3.10;2.73;;;7.50;99.90;;;;;;5034195;28;20966;-62
2024/03/26 05:05:04;;;;;;;3.83;3.17;;;7.40;99.90;;;;;;5035271;28;20480;-63
2024/03/26 05:07:32;;;;;;;3.33;2.23;;;7.40;99.90;;;;;;5034701;28;20448;-62
2024/03/26 05:09:58;;;;;;;2.40;2.17;;;7.40;99.90;;;;;;5035118;28;20205;-62
2024/03/26 05:12:23;;;;;;;2.67;2.40;;;7.40;99.90;;;;;;5033820;28;20891;-62
2024/03/26 05:14:49;;;;;;;3.07;2.60;;;7.40;99.90;;;;;;5066864;28;21256;-63
2024/03/26 05:17:15;;;;;;;5.63;3.07;;;7.40;99.90;;;;;;5034819;28;20296;-62
2024/03/26 05:19:40;;;;;;;5.03;2.30;;;7.50;99.90;;;;;;5034413;28;20195;-62
2024/03/26 05:22:06;;;;;;;5.47;2.17;;;7.50;99.90;;;;;;5034661;28;20835;-63
2024/03/26 05:24:32;;;;;;;3.60;2.40;;;7.50;99.90;;;;;;5034593;28;20194;-63
2024/03/26 05:26:58;;;;;;;4.70;2.60;;;7.60;99.90;;;;;;5034987;28;20554;-63
2024/03/26 05:29:24;;;;;;;3.80;3.13;;;7.60;99.90;;;;;;5034597;28;20540;-63
2024/03/26 05:31:49;;;;;;;5.37;3.03;;;7.60;99.90;;;;;;5034392;28;21799;-62
2024/03/26 05:34:15;;;;;;;3.07;2.60;;;7.50;99.90;;;;;;5034767;28;20209;-63
2024/03/26 05:36:41;;;;;;;3.93;3.03;;;7.50;99.90;;;;;;5034325;28;20277;-63
2024/03/26 05:39:08;;;;;;;4.50;2.90;;;7.50;99.90;;;;;;5034466;28;20190;-63
2024/03/26 05:41:34;;;;;;;5.10;3.10;;;7.40;99.90;;;;;;5033606;28;20190;-63
2024/03/26 05:43:59;;;;;;;5.83;3.47;;;7.40;99.90;;;;;;5035078;28;20964;-62
2024/03/26 05:46:25;;;;;;;6.00;3.13;;;7.30;99.90;;;;;;5032930;28;20185;-63
2024/03/26 05:48:51;;;;;;;4.23;3.40;;;7.30;99.90;;;;;;5031509;28;20193;-63
2024/03/26 05:51:16;;;;;;;5.87;3.70;;;7.30;99.90;;;;;;5034350;28;20224;-63
2024/03/26 05:53:42;;;;;;;4.80;3.33;;;7.30;99.90;;;;;;5032972;28;20186;-63
2024/03/26 05:56:08;;;;;;;3.27;2.60;;;7.40;99.90;;;;;;5034257;28;20190;-63
2024/03/26 05:58:33;;;;;;;6.87;4.20;;;7.30;99.90;;;;;;5033577;28;20185;-63
2024/03/26 06:01:03;;;;;;;5.40;3.77;;;7.30;99.90;;;;;;5034378;28;20177;-63
2024/03/26 06:03:29;;;;;;;7.17;4.03;;;7.30;99.90;;;;;;5033752;28;20226;-63
2024/03/26 06:05:55;;;;;;;5.63;3.97;;;7.20;99.90;;;;;;5034292;28;20472;-63
2024/03/26 06:08:20;;;;;;;7.27;3.30;;;7.20;99.90;;;;;;5034520;28;20817;-62
2024/03/26 06:10:46;;;;;;;4.60;3.20;;;7.30;99.90;;;;;;5033770;28;20776;-62
2024/03/26 06:13:12;;;;;;;4.00;3.17;;;7.30;99.90;;;;;;5034724;28;20425;-62
2024/03/26 06:15:37;;;;;;;7.47;3.27;;;7.30;99.90;;;;;;5033872;28;20817;-62
2024/03/26 06:18:04;;;;;;;3.13;2.90;;;7.30;99.90;;;;;;5034287;28;20186;-62
2024/03/26 06:20:30;;;;;;;5.13;3.67;;;7.30;99.90;;;;;;5033869;28;20178;-63
2024/03/26 06:22:55;;;;;;;7.63;4.30;;;7.30;99.90;;;;;;5033666;28;20424;-63
2024/03/26 06:25:21;;;;;;;3.90;3.13;;;7.30;99.90;;;;;;5034209;28;20444;-62
2024/03/26 06:27:47;;;;;;;4.40;3.40;;;7.40;99.90;;;;;;5033240;28;20656;-63
2024/03/26 06:30:13;;;;;;;3.80;2.80;;;7.40;99.90;;;;;;5034556;28;20590;-63
2024/03/26 06:32:39;;;;;;;5.03;2.70;;;7.40;99.90;;;;;;5033423;28;21387;-62
2024/03/26 06:35:05;;;;;;;4.20;3.07;;;7.50;99.90;;;;;;5035044;28;20440;-63
2024/03/26 06:37:32;;;;;;;2.70;2.40;;;7.50;99.90;;;;;;5033880;28;20466;-63
2024/03/26 06:39:57;;;;;;;4.80;2.37;;;7.60;99.90;;;;;;5034597;28;20536;-63
2024/03/26 06:42:23;;;;;;;4.63;2.60;;;7.70;99.90;;;;;;5033383;28;20512;-62
2024/03/26 06:44:49;;;;;;;3.70;2.60;;;7.80;99.90;;;;;;5034250;28;20217;-62
2024/03/26 06:47:15;;;;;;;5.30;2.50;;;7.90;99.90;;;;;;5036244;28;20707;-63
2024/03/26 06:49:41;;;;;;;2.37;2.17;;;8.00;99.90;;;;;;5033659;28;20661;-62
2024/03/26 06:52:07;;;;;;;3.13;2.43;;;8.00;99.90;;;;;;5033333;28;20225;-63
2024/03/26 06:54:33;;;;;;;4.17;2.70;;;8.10;99.90;;;;;;5035493;28;20436;-63
2024/03/26 06:56:59;;;;;;;4.53;2.53;;;8.10;99.90;;;;;;5033566;28;20423;-63
2024/03/26 06:59:25;;;;;;;4.70;2.33;;;8.10;99.90;;;;;;5033678;28;20421;-63
2024/03/26 07:01:51;;;;;;;1.97;1.87;;;8.20;99.90;;;;;;5037966;28;20463;-63
2024/03/26 07:04:16;;;;;;;2.80;2.20;;;8.20;99.90;;;;;;5038346;28;20281;-63
2024/03/26 07:06:43;;;;;;;5.07;2.57;;;8.30;99.90;;;;;;5037476;28;21039;-63
2024/03/26 07:09:09;;;;;;;2.27;2.07;;;8.30;99.90;;;;;;5037559;28;20280;-63
2024/03/26 07:11:35;;;;;;;4.87;2.77;;;8.30;99.90;;;;;;5036840;28;20560;-63
2024/03/26 07:14:00;;;;;;;2.60;2.40;;;8.30;99.90;;;;;;5037640;28;20247;-63
2024/03/26 07:16:26;;;;;;;3.83;2.10;;;8.30;99.90;;;;;;5037319;28;20182;-63
2024/03/26 07:18:52;;;;;;;3.53;2.70;;;8.40;99.90;;;;;;5038257;28;20193;-63
2024/03/26 07:21:17;;;;;;;2.50;2.30;;;8.40;99.90;;;;;;5037043;28;20181;-64
2024/03/26 07:23:44;;;;;;;4.33;2.50;;;8.40;99.90;;;;;;5037937;28;20182;-63
2024/03/26 07:26:10;;;;;;;2.70;2.50;;;8.50;99.90;;;;;;5038035;28;20427;-63
2024/03/26 07:28:37;;;;;;;3.37;2.13;;;8.50;99.90;;;;;;5036401;28;20982;-63
2024/03/26 07:31:04;;;;;;;2.77;2.57;;;8.50;99.90;;;;;;5037715;28;20480;-64
2024/03/26 07:33:29;;;;;;;3.37;2.70;;;8.60;99.90;;;;;;5037264;28;20421;-63
2024/03/26 07:35:55;;;;;;;5.10;2.80;;;8.60;99.90;;;;;;5035597;28;20506;-62
2024/03/26 07:38:21;;;;;;;2.80;2.60;;;8.70;99.90;;;;;;5037789;28;20232;-62
2024/03/26 07:40:46;;;;;;;2.67;2.40;;;8.70;99.90;;;;;;5036508;28;20639;-62
2024/03/26 07:43:12;;;;;;;3.60;2.83;;;8.80;99.90;;;;;;5039037;28;20178;-62
2024/03/26 07:45:38;;;;;;;2.70;2.10;;;8.80;99.90;;;;;;5038067;28;20193;-63
2024/03/26 07:48:04;;;;;;;2.20;2.00;;;8.90;99.90;;;;;;5037731;28;20838;-63
2024/03/26 07:50:29;;;;;;;3.10;2.37;;;8.90;99.90;;;;;;5036498;28;20953;-63
2024/03/26 07:52:55;;;;;;;5.27;2.30;;;8.90;99.90;;;;;;5037606;28;20469;-62
2024/03/26 07:55:21;;;;;;;5.20;2.00;;;8.90;99.90;;;;;;5036839;28;20187;-62
2024/03/26 07:57:46;;;;;;;2.50;2.10;;;9.00;99.90;;;;;;5039829;28;20333;-63
2024/03/26 08:00:13;;;;;;;3.63;2.30;;;9.00;99.90;;;;;;5039197;28;20189;-63
2024/03/26 08:02:38;;;;;;;2.30;1.97;;;9.00;99.90;;;;;;5037070;28;20212;-62
2024/03/26 08:05:05;;;;;;;5.53;2.47;;;9.00;99.90;;;;;;5037508;28;20507;-63
2024/03/26 08:07:31;;;;;;;2.70;2.33;;;9.00;99.90;;;;;;5036210;28;20660;-63
2024/03/26 08:09:57;;;;;;;4.37;2.40;;;9.10;99.90;;;;;;5036721;28;20435;-62
2024/03/26 08:12:23;;;;;;;2.40;2.13;;;9.10;99.90;;;;;;5034826;28;20465;-62
2024/03/26 08:14:49;;;;;;;2.20;1.80;;;9.10;99.90;;;;;;5036807;28;20189;-62
2024/03/26 08:17:14;;;;;;;2.10;1.90;;;9.20;99.90;;;;;;5067960;28;20261;-62
2024/03/26 08:19:40;;;;;;;3.90;2.40;;;9.20;99.90;;;;;;5036653;28;20185;-62
2024/03/26 08:22:06;;;;;;;2.90;2.33;;;9.20;99.90;;;;;;5036976;28;20182;-62
2024/03/26 08:24:33;;;;;;;2.87;2.17;;;9.30;99.90;;;;;;5036314;28;20247;-63
2024/03/26 08:26:59;;;;;;;2.83;1.77;;;9.40;99.90;;;;;;5036670;28;20632;-63
2024/03/26 08:29:25;;;;;;;2.83;2.50;;;9.40;99.90;;;;;;5035741;28;20857;-63
2024/03/26 08:31:51;;;;;;;3.10;2.23;;;9.50;99.90;;;;;;5036849;28;20476;-63
2024/03/26 08:34:17;;;;;;;2.43;2.23;;;9.60;99.90;;;;;;5036120;28;20464;-63
2024/03/26 08:36:43;;;;;;;5.03;1.87;;;9.60;99.90;;;;;;5037059;28;20443;-63
2024/03/26 08:39:10;;;;;;;4.17;1.80;;;9.70;99.90;;;;;;5068670;28;20433;-62
2024/03/26 08:41:36;;;;;;;2.53;1.97;;;9.80;99.90;;;;;;5037416;28;20445;-62
2024/03/26 08:44:05;;;;;;;3.27;2.00;;;9.90;99.90;;;;;;5037339;28;20421;-63
2024/03/26 08:46:32;;;;;;;4.40;2.23;;;10.00;99.90;;;;;;5036479;28;20432;-63
2024/03/26 08:48:58;;;;;;;4.90;2.17;;;10.00;99.90;;;;;;5035929;28;20444;-63
2024/03/26 08:51:28;;;;;;;2.77;2.10;;;10.10;99.90;;;;;;5035544;28;20465;-63
2024/03/26 08:53:58;;;;;;;4.20;2.60;;;10.20;99.90;;;;;;5035360;28;21035;-62
2024/03/26 08:56:24;;;;;;;6.10;2.13;;;10.30;99.90;;;;;;5033873;28;20425;-63
2024/03/26 08:58:53;;;;;;;3.20;2.20;;;10.30;99.90;;;;;;5049048;28;20446;-62
2024/03/26 09:01:20;;;;;;;2.10;1.80;;;10.40;99.90;;;;;;5065842;28;20432;-63
2024/03/26 09:03:45;;;;;;;2.60;1.63;;;10.40;99.90;;;;;;5035248;28;20863;-63
2024/03/26 09:06:11;;;;;;;2.93;2.17;;;10.50;99.90;;;;;;5066626;28;20462;-63
2024/03/26 09:08:37;;;;;;;4.93;1.80;;;10.50;99.90;;;;;;5035778;28;20217;-62
2024/03/26 09:11:03;;;;;;;2.47;1.73;;;10.60;99.90;;;;;;5036320;28;20428;-62
2024/03/26 09:13:29;;;;;;;3.47;2.23;;;10.70;99.60;;;;;;5035108;28;20181;-62
2024/03/26 09:15:55;;;;;;;2.67;1.90;;;10.70;99.60;;;;;;5035671;28;20448;-62
2024/03/26 09:18:21;;;;;;;2.77;1.97;;;10.70;99.90;;;;;;5035077;28;20425;-62
2024/03/26 09:20:46;;;;;;;3.33;2.07;;;10.70;99.60;;;;;;5036199;28;20187;-62
2024/03/26 09:23:12;;;;;;;2.97;2.37;;;10.70;99.50;;;;;;5035503;28;20844;-62
2024/03/26 09:25:38;;;;;;;4.93;2.00;;;10.70;99.60;;;;;;5036088;28;20186;-62
2024/03/26 09:28:04;;;;;;;2.20;2.00;;;10.80;99.90;;;;;;5035998;28;20205;-62
2024/03/26 09:30:30;;;;;;;2.40;1.80;;;10.80;99.90;;;;;;5050340;28;20258;-62
2024/03/26 09:32:56;;;;;;;2.20;1.80;;;10.80;99.40;;;;;;5036038;28;20471;-62
2024/03/26 09:35:22;;;;;;;3.37;2.20;;;10.90;99.90;;;;;;5035072;28;20416;-62
2024/03/26 09:37:48;;;;;;;3.10;2.00;;;10.80;99.80;;;;;;5035400;28;20425;-62
2024/03/26 09:40:14;;;;;;;2.60;2.03;;;10.90;99.90;;;;;;5035125;28;20432;-62
2024/03/26 09:42:43;;;;;;;2.10;1.90;;;10.80;99.90;;;;;;5035757;28;20197;-62
2024/03/26 09:45:12;;;;;;;3.33;1.60;;;10.90;99.90;;;;;;5035302;28;20459;-62
2024/03/26 09:47:40;;;;;;;2.27;1.80;;;10.80;99.90;;;;;;5035136;28;20499;-62
2024/03/26 09:50:07;;;;;;;2.30;1.77;;;10.80;99.90;;;;;;5035615;28;20440;-62
2024/03/26 09:52:34;;;;;;;2.90;1.50;;;10.80;99.90;;;;;;5035560;28;20574;-62
2024/03/26 09:55:06;;;;;;;2.43;1.80;;;10.80;99.90;;;;;;5036093;28;20424;-62
2024/03/26 09:57:32;;;;;;;1.87;1.77;;;10.80;99.90;;;;;;5035169;28;20863;-62
2024/03/26 09:59:58;;;;;;;3.60;2.07;;;10.80;99.90;;;;;;5036080;28;20523;-62
2024/03/26 10:02:23;;;;;;;2.80;1.90;;;10.80;99.90;;;;;;5035113;28;20177;-62
2024/03/26 10:04:49;;;;;;;2.40;1.70;;;10.80;99.90;;;;;;5035595;28;20260;-62
2024/03/26 10:07:15;;;;;;;3.03;1.80;;;10.80;99.90;;;;;;5034953;28;20216;-62
2024/03/26 10:09:40;;;;;;;1.70;1.43;;;10.90;99.90;;;;;;5035778;28;20199;-62
2024/03/26 10:12:12;;;;;;;2.47;2.20;;;10.90;99.90;;;;;;5034993;28;20214;-62
2024/03/26 10:14:40;;;;;;;2.13;1.70;;;10.90;99.90;;;;;;5035691;28;20291;-62
2024/03/26 10:17:06;;;;;;;3.00;1.80;;;10.90;99.90;;;;;;5034296;28;20443;-62
2024/03/26 10:19:32;;;;;;;2.47;2.27;;;10.90;99.90;;;;;;5035180;28;20523;-62
2024/03/26 10:21:59;;;;;;;2.00;1.63;;;10.90;99.90;;;;;;5035405;28;20447;-62
2024/03/26 10:24:24;;;;;;;3.43;1.80;;;10.80;99.90;;;;;;5034221;28;20429;-62
2024/03/26 10:26:51;;;;;;;3.17;1.80;;;10.90;99.90;;;;;;5067485;28;20689;-62
2024/03/26 10:29:17;;;;;;;3.13;1.80;;;10.90;99.90;;;;;;5033655;28;20201;-62
2024/03/26 10:31:44;;;;;;;2.50;2.30;;;10.90;99.90;;;;;;5034974;28;20969;-62
2024/03/26 10:34:12;;;;;;;3.23;1.90;;;10.90;99.90;;;;;;5033245;28;20319;-61
2024/03/26 10:36:41;;;;;;;3.00;2.30;;;10.90;99.90;;;;;;5033885;28;20943;-62
2024/03/26 10:39:10;;;;;;;2.10;1.63;;;10.90;99.90;;;;;;5034224;28;20911;-62
2024/03/26 10:41:39;;;;;;;1.93;1.73;;;10.90;99.90;;;;;;5034407;28;20526;-62
2024/03/26 10:44:06;;;;;;;2.00;1.77;;;10.80;99.90;;;;;;5034824;28;20437;-62
2024/03/26 10:46:33;;;;;;;3.17;1.73;;;10.90;99.90;;;;;;5034515;28;20898;-62
2024/03/26 10:49:01;;;;;;;2.90;1.83;;;10.90;99.90;;;;;;5035110;28;20828;-62
2024/03/26 10:51:29;;;;;;;4.60;1.93;;;10.90;99.90;;;;;;5034376;28;20472;-62
2024/03/26 10:53:59;;;;;;;4.67;2.00;;;10.90;99.90;;;;;;5035783;28;20853;-62
2024/03/26 10:56:26;;;;;;;4.47;2.10;;;10.90;99.90;;;;;;5034220;28;20788;-62
2024/03/26 10:58:57;;;;;;;3.10;1.63;;;11.00;99.90;;;;;;5035509;28;20511;-62
2024/03/26 11:01:24;;;;;;;4.10;2.30;;;11.00;99.90;;;;;;5034233;28;20439;-62
2024/03/26 11:03:52;;;;;;;5.10;1.80;;;11.10;99.90;;;;;;5034642;28;20515;-62
2024/03/26 11:06:21;;;;;;;4.00;1.90;;;11.20;99.90;;;;;;5034371;28;20844;-62
2024/03/26 11:08:47;;;;;;;4.00;1.63;;;11.20;99.90;;;;;;5034805;28;20429;-62
2024/03/26 11:11:18;;;;;;;3.23;1.93;;;11.20;99.90;;;;;;5033460;28;20521;-62
2024/03/26 11:13:44;;;;;;;3.23;2.00;;;11.30;99.90;;;;;;5035303;28;20464;-62
2024/03/26 11:16:35;;;;;;;2.60;2.40;;;11.30;99.90;;;;;;5033882;28;20847;-62
2024/03/26 11:19:16;;;;;;;2.90;1.80;;;11.30;99.90;;;;;;5033600;28;20281;-62
2024/03/26 11:21:43;;;;;;;2.80;1.90;;;11.40;99.90;;;;;;5034564;28;20427;-62
2024/03/26 11:24:40;;;;;;;2.73;1.67;;;11.40;99.90;;;;;;5034284;28;20439;-62
2024/03/26 11:27:07;;;;;;;3.60;1.70;;;11.50;99.90;;;;;;5034350;28;21031;-62
2024/03/26 11:29:35;;;;;;;6.07;2.83;;;11.50;99.90;;;;;;5034818;28;20424;-62
2024/03/26 11:32:01;;;;;;;1.67;1.57;;;11.70;99.90;;;;;;5033806;28;20532;-62
2024/03/26 11:34:29;;;;;;;4.23;1.93;;;11.80;99.90;;;;;;5035014;28;20437;-62
2024/03/26 11:36:57;;;;;;;3.67;2.10;;;11.90;99.90;;;;;;5034767;28;20433;-63
2024/03/26 11:39:25;;;;;;;3.13;2.40;;;11.90;99.90;;;;;;5032473;28;20420;-62
2024/03/26 11:41:51;;;;;;;3.07;1.80;;;12.00;99.90;;;;;;5035090;28;20421;-62
2024/03/26 11:44:17;;;;;;;4.77;2.00;;;12.00;99.90;;;;;;5034393;28;20417;-62
2024/03/26 11:46:46;;;;;;;3.70;2.03;;;12.00;99.90;;;;;;5037755;28;20435;-62
2024/03/26 11:49:12;;;;;;;2.90;1.97;;;12.00;99.90;;;;;;5038085;28;20444;-62
2024/03/26 11:51:39;;;;;;;5.00;2.40;;;12.00;99.90;;;;;;5037247;28;21053;-62
2024/03/26 11:54:05;;;;;;;4.67;2.00;;;12.00;99.90;;;;;;5038651;28;20542;-62
2024/03/26 11:56:32;;;;;;;3.63;1.80;;;12.10;99.90;;;;;;5069663;28;20436;-62
2024/03/26 11:58:58;;;;;;;3.30;1.90;;;12.10;99.90;;;;;;5036256;28;21109;-62
2024/03/26 12:01:25;;;;;;;2.20;2.00;;;12.10;99.90;;;;;;5037907;28;20421;-62
2024/03/26 12:04:03;;;;;;;3.07;1.77;;;12.20;99.90;;;;;;5037612;28;20614;-62
2024/03/26 12:06:31;;;;;;;2.47;1.83;;;12.20;99.90;;;;;;5037640;28;21222;-63
2024/03/26 12:09:00;;;;;;;4.37;2.00;;;12.30;99.90;;;;;;5037136;28;20424;-62
2024/03/26 12:11:26;;;;;;;4.93;2.17;;;12.30;99.90;;;;;;5036384;28;20464;-62
2024/03/26 12:13:52;;;;;;;2.43;1.83;;;12.30;99.90;;;;;;5037529;28;20491;-62
2024/03/26 12:16:26;;;;;;;3.30;1.90;;;12.40;99.90;;;;;;5035280;28;20187;-62
2024/03/26 12:18:52;;;;;;;3.80;2.00;;;12.50;99.90;;;;;;5036633;28;20432;-62
2024/03/26 12:21:18;;;;;;;2.23;2.00;;;12.50;99.90;;;;;;5036788;28;20995;-62
2024/03/26 12:23:49;;;;;;;3.73;1.60;;;12.50;99.90;;;;;;5037725;28;21279;-62
2024/03/26 12:26:15;;;;;;;2.57;2.00;;;12.60;99.90;;;;;;5036187;28;20186;-62
2024/03/26 12:28:41;;;;;;;2.53;2.27;;;12.60;99.90;;;;;;5036489;28;20469;-62
2024/03/26 12:31:07;;;;;;;2.13;1.70;;;12.60;99.90;;;;;;5036320;28;20459;-62
2024/03/26 12:33:33;;;;;;;2.17;1.50;;;12.70;99.90;;;;;;5036873;28;20905;-62
2024/03/26 12:36:01;;;;;;;2.53;1.70;;;12.80;99.90;;;;;;5037077;28;20424;-62
2024/03/26 12:38:26;;;;;;;2.70;1.97;;;12.90;99.90;;;;;;5036922;28;20195;-62
2024/03/26 12:40:52;;;;;;;3.97;1.90;;;12.90;99.90;;;;;;5036811;28;20493;-62
2024/03/26 12:43:19;;;;;;;4.90;1.90;;;13.00;99.90;;;;;;5036401;28;20257;-63
2024/03/26 12:45:45;;;;;;;1.90;1.70;;;13.10;99.90;;;;;;5036987;28;20254;-62
2024/03/26 12:48:10;;;;;;;2.00;1.80;;;13.10;99.90;;;;;;5036192;28;20957;-62